createdAt,value
2022-09-21T00:01:12.886Z,13.27
2022-09-21T00:03:43.412Z,13.25
2022-09-21T00:06:15.284Z,13.21
2022-09-21T00:08:42.916Z,13.20
2022-09-21T00:11:20.511Z,13.16
2022-09-21T00:13:47.749Z,13.16
2022-09-21T00:16:15.976Z,13.15
2022-09-21T00:18:42.883Z,13.15
2022-09-21T00:21:11.519Z,13.12
2022-09-21T00:23:38.323Z,13.11
2022-09-21T00:26:31.436Z,13.09
2022-09-21T00:29:00.535Z,13.08
2022-09-21T00:31:28.794Z,13.03
2022-09-21T00:33:55.623Z,13.02
2022-09-21T00:36:24.456Z,12.99
2022-09-21T00:38:53.403Z,12.96
2022-09-21T00:41:20.303Z,12.94
2022-09-21T00:44:25.408Z,12.91
2022-09-21T00:46:54.155Z,12.88
2022-09-21T00:49:21.888Z,12.83
2022-09-21T00:51:49.199Z,12.81
2022-09-21T00:54:21.916Z,12.78
2022-09-21T00:56:52.736Z,12.77
2022-09-21T00:59:21.991Z,12.74
2022-09-21T01:01:49.888Z,12.74
2022-09-21T01:04:18.897Z,12.72
2022-09-21T01:06:47.936Z,12.69
2022-09-21T01:09:15.167Z,12.68
2022-09-21T01:12:01.655Z,12.66
2022-09-21T01:14:37.254Z,12.66
2022-09-21T01:17:25.371Z,12.65
2022-09-21T01:20:20.172Z,12.63
2022-09-21T01:23:21.100Z,12.59
2022-09-21T01:25:53.488Z,12.56
2022-09-21T01:28:20.902Z,12.53
2022-09-21T01:30:49.858Z,12.49
2022-09-21T01:33:19.609Z,12.48
2022-09-21T01:35:53.148Z,12.47
2022-09-21T01:38:27.088Z,12.47
2022-09-21T01:41:01.187Z,12.45
2022-09-21T01:43:33.229Z,12.41
2022-09-21T01:46:03.906Z,12.39
2022-09-21T01:48:39.235Z,12.36
2022-09-21T01:51:09.831Z,12.34
2022-09-21T01:53:38.045Z,12.42
2022-09-21T01:56:10.166Z,12.30
2022-09-21T01:58:41.588Z,12.26
2022-09-21T02:01:10.796Z,12.24
2022-09-21T02:03:41.671Z,12.21
2022-09-21T02:06:08.399Z,12.20
2022-09-21T02:08:36.197Z,12.18
2022-09-21T02:11:04.115Z,12.17
2022-09-21T02:13:34.660Z,12.16
2022-09-21T02:16:07.337Z,12.24
2022-09-21T02:18:57.698Z,12.17
2022-09-21T02:21:53.463Z,12.16
2022-09-21T02:24:30.223Z,12.14
2022-09-21T02:27:03.660Z,12.11
2022-09-21T02:29:51.912Z,12.09
2022-09-21T02:32:40.176Z,12.10
2022-09-21T02:35:45.835Z,12.10
2022-09-21T02:38:35.175Z,12.07
2022-09-21T02:41:06.452Z,12.07
2022-09-21T02:43:35.855Z,12.06
2022-09-21T02:46:06.270Z,12.03
2022-09-21T02:48:43.471Z,12.03
2022-09-21T02:51:14.098Z,12.05
2022-09-21T02:53:41.680Z,12.11
2022-09-21T02:56:09.116Z,12.06
2022-09-21T02:58:38.430Z,12.00
2022-09-21T03:01:08.768Z,11.97
2022-09-21T03:03:35.917Z,11.95
2022-09-21T03:06:02.714Z,11.94
2022-09-21T03:08:30.463Z,11.93
2022-09-21T03:10:57.803Z,11.90
2022-09-21T03:13:25.056Z,11.89
2022-09-21T03:16:02.814Z,11.87
2022-09-21T03:18:33.955Z,11.85
2022-09-21T03:21:02.577Z,11.84
2022-09-21T03:23:29.840Z,11.83
2022-09-21T03:25:56.675Z,11.83
2022-09-21T03:28:23.698Z,11.80
2022-09-21T03:30:51.862Z,11.77
2022-09-21T03:33:19.615Z,11.75
2022-09-21T03:35:48.503Z,11.73
2022-09-21T03:38:16.792Z,11.71
2022-09-21T03:40:47.273Z,11.67
2022-09-21T03:43:14.159Z,11.67
2022-09-21T03:45:42.034Z,11.64
2022-09-21T03:48:10.035Z,11.61
2022-09-21T03:50:37.463Z,11.58
2022-09-21T03:53:04.680Z,11.54
2022-09-21T03:55:31.694Z,11.52
2022-09-21T03:57:58.391Z,11.50
2022-09-21T04:00:25.043Z,11.49
2022-09-21T04:02:52.157Z,11.48
2022-09-21T04:05:18.822Z,11.47
2022-09-21T04:07:48.346Z,11.46
2022-09-21T04:10:18.137Z,11.44
2022-09-21T04:12:46.074Z,11.44
2022-09-21T04:15:21.660Z,11.43
2022-09-21T04:17:51.199Z,11.40
2022-09-21T04:20:19.243Z,11.39
2022-09-21T04:22:47.199Z,11.39
2022-09-21T04:25:14.658Z,11.38
2022-09-21T04:27:42.859Z,11.34
2022-09-21T04:30:12.440Z,11.34
2022-09-21T04:32:39.259Z,11.35
2022-09-21T04:35:06.344Z,11.33
2022-09-21T04:37:33.243Z,11.32
2022-09-21T04:40:00.522Z,11.29
2022-09-21T04:42:27.696Z,11.30
2022-09-21T04:44:54.368Z,11.27
2022-09-21T04:47:23.679Z,11.26
2022-09-21T04:49:50.675Z,11.23
2022-09-21T04:52:19.239Z,11.22
2022-09-21T04:54:47.143Z,11.20
2022-09-21T04:57:14.789Z,11.19
2022-09-21T04:59:41.474Z,11.18
2022-09-21T05:02:08.194Z,11.18
2022-09-21T05:04:35.003Z,11.16
2022-09-21T05:07:01.727Z,11.15
2022-09-21T05:09:47.331Z,11.12
2022-09-21T05:12:14.155Z,11.09
2022-09-21T05:14:41.215Z,10.83
2022-09-21T05:17:07.971Z,10.56
2022-09-21T05:19:34.679Z,10.32
2022-09-21T05:22:01.368Z,10.09
2022-09-21T05:24:28.052Z,9.95
2022-09-21T05:26:54.810Z,9.79
2022-09-21T05:29:29.328Z,9.64
2022-09-21T05:32:00.214Z,9.49
2022-09-21T05:34:36.904Z,9.42
2022-09-21T05:37:30.846Z,9.27
2022-09-21T05:39:58.061Z,9.14
2022-09-21T05:42:26.655Z,9.06
2022-09-21T05:44:55.398Z,9.01
2022-09-21T05:47:43.838Z,8.91
2022-09-21T05:50:22.801Z,8.92
2022-09-21T05:53:07.923Z,8.97
2022-09-21T05:55:51.878Z,9.01
2022-09-21T05:58:27.247Z,9.01
2022-09-21T06:01:05.242Z,9.05
2022-09-21T06:03:34.946Z,9.05
2022-09-21T06:06:02.202Z,9.08
2022-09-21T06:08:29.038Z,9.07
2022-09-21T06:10:56.038Z,9.04
2022-09-21T06:13:25.426Z,8.98
2022-09-21T06:15:55.630Z,8.98
2022-09-21T06:18:23.326Z,8.99
2022-09-21T06:20:50.081Z,9.01
2022-09-21T06:23:16.937Z,9.05
2022-09-21T06:25:43.623Z,9.03
2022-09-21T06:28:12.671Z,9.00
2022-09-21T06:30:42.278Z,9.05
2022-09-21T06:33:09.557Z,9.11
2022-09-21T06:35:37.631Z,9.24
2022-09-21T06:38:06.712Z,9.34
2022-09-21T06:40:35.121Z,9.50
2022-09-21T06:43:03.512Z,9.66
2022-09-21T06:45:31.190Z,9.81
2022-09-21T06:47:58.955Z,9.92
2022-09-21T06:50:25.795Z,10.03
2022-09-21T06:52:52.551Z,10.12
2022-09-21T06:55:19.262Z,10.20
2022-09-21T06:57:46.440Z,10.32
2022-09-21T07:00:14.406Z,10.45
2022-09-21T07:02:45.435Z,10.63
2022-09-21T07:05:12.838Z,10.77
2022-09-21T07:07:40.465Z,10.90
2022-09-21T07:10:13.210Z,11.02
2022-09-21T07:12:41.841Z,11.11
2022-09-21T07:15:10.285Z,11.15
2022-09-21T07:17:38.818Z,11.23
2022-09-21T07:20:06.681Z,11.33
2022-09-21T07:22:33.916Z,11.38
2022-09-21T07:25:00.582Z,11.38
2022-09-21T07:27:29.956Z,11.41
2022-09-21T07:29:56.599Z,11.46
2022-09-21T07:32:23.570Z,11.53
2022-09-21T07:34:50.289Z,11.63
2022-09-21T07:37:17.167Z,11.70
2022-09-21T07:39:43.885Z,11.77
2022-09-21T07:42:10.707Z,11.90
2022-09-21T07:44:37.363Z,12.01
2022-09-21T07:47:04.183Z,12.10
2022-09-21T07:49:30.826Z,12.17
2022-09-21T07:52:02.879Z,12.28
2022-09-21T07:54:32.276Z,12.35
2022-09-21T07:57:17.240Z,12.42
2022-09-21T07:59:43.952Z,12.51
2022-09-21T08:02:10.597Z,12.61
2022-09-21T08:04:37.559Z,12.68
2022-09-21T08:07:04.970Z,12.74
2022-09-21T08:09:31.727Z,12.80
2022-09-21T08:12:01.413Z,12.88
2022-09-21T08:14:29.311Z,12.97
2022-09-21T08:16:56.055Z,13.03
2022-09-21T08:19:26.018Z,13.13
2022-09-21T08:21:57.247Z,13.19
2022-09-21T08:24:26.765Z,13.27
2022-09-21T08:26:55.870Z,13.33
2022-09-21T08:29:24.176Z,13.40
2022-09-21T08:31:50.978Z,13.49
2022-09-21T08:34:19.625Z,13.57
2022-09-21T08:36:46.490Z,13.70
2022-09-21T08:39:13.230Z,13.80
2022-09-21T08:41:59.043Z,13.90
2022-09-21T08:44:48.975Z,13.95
2022-09-21T08:47:36.850Z,14.00
2022-09-21T08:50:04.968Z,14.09
2022-09-21T08:52:32.208Z,14.19
2022-09-21T08:55:02.390Z,14.31
2022-09-21T08:57:31.253Z,14.39
2022-09-21T08:59:59.577Z,14.44
2022-09-21T09:02:53.878Z,14.52
2022-09-21T09:05:42.230Z,14.65
2022-09-21T09:08:22.570Z,14.79
2022-09-21T09:11:21.012Z,14.94
2022-09-21T09:13:59.963Z,15.08
2022-09-21T09:16:38.757Z,15.23
2022-09-21T09:19:20.700Z,15.38
2022-09-21T09:21:47.826Z,15.44
2022-09-21T09:24:33.733Z,15.55
2022-09-21T09:27:04.592Z,15.65
2022-09-21T09:30:03.586Z,15.78
2022-09-21T09:33:01.758Z,15.92
2022-09-21T09:35:29.771Z,16.07
2022-09-21T09:38:22.291Z,16.28
2022-09-21T09:41:28.892Z,16.44
2022-09-21T09:44:38.988Z,16.60
2022-09-21T09:47:57.347Z,16.59
2022-09-21T09:50:32.622Z,16.68
2022-09-21T09:53:05.117Z,16.75
2022-09-21T09:55:41.097Z,16.81
2022-09-21T09:58:16.842Z,16.89
2022-09-21T10:00:44.183Z,16.97
2022-09-21T10:03:26.134Z,17.06
2022-09-21T10:05:53.359Z,17.22
2022-09-21T10:08:44.175Z,17.31
2022-09-21T10:11:15.435Z,17.32
2022-09-21T10:13:44.102Z,17.32
2022-09-21T10:16:18.780Z,17.34
2022-09-21T10:18:56.526Z,17.37
2022-09-21T10:21:34.874Z,17.45
2022-09-21T10:24:23.543Z,17.61
2022-09-21T10:26:54.686Z,17.74
2022-09-21T10:29:25.365Z,17.80
2022-09-21T10:32:12.387Z,17.84
2022-09-21T10:34:44.648Z,17.87
2022-09-21T10:37:25.659Z,17.92
2022-09-21T10:39:52.876Z,17.92
2022-09-21T10:42:20.038Z,17.97
2022-09-21T10:44:49.298Z,18.04
2022-09-21T10:47:35.679Z,18.11
2022-09-21T10:50:06.791Z,18.14
2022-09-21T10:52:36.219Z,18.24
2022-09-21T10:55:05.160Z,18.34
2022-09-21T10:57:33.188Z,18.45
2022-09-21T11:00:19.464Z,18.61
2022-09-21T11:02:48.122Z,18.68
2022-09-21T11:05:18.519Z,18.63
2022-09-21T11:07:50.042Z,18.77
2022-09-21T11:10:23.764Z,18.71
2022-09-21T11:12:59.865Z,18.56
2022-09-21T11:15:41.892Z,18.46
2022-09-21T11:18:34.773Z,18.43
2022-09-21T11:21:20.136Z,18.50
2022-09-21T11:24:08.683Z,18.41
2022-09-21T11:26:45.893Z,18.35
2022-09-21T11:29:21.368Z,18.15
2022-09-21T11:32:26.453Z,18.15
2022-09-21T11:35:15.261Z,18.25
2022-09-21T11:37:57.747Z,18.32
2022-09-21T11:40:55.886Z,18.27
2022-09-21T11:44:03.017Z,17.94
2022-09-21T11:46:38.182Z,18.02
2022-09-21T11:49:33.651Z,18.22
2022-09-21T11:52:06.995Z,18.31
2022-09-21T11:54:40.511Z,18.40
2022-09-21T11:57:31.339Z,18.45
2022-09-21T12:00:25.101Z,18.51
2022-09-21T12:03:06.745Z,18.30
2022-09-21T12:06:01.201Z,18.37
2022-09-21T12:08:33.800Z,18.55
2022-09-21T12:11:07.134Z,18.61
2022-09-21T12:13:41.870Z,18.65
2022-09-21T12:16:44.095Z,18.76
2022-09-21T12:19:43.341Z,18.83
2022-09-21T12:22:17.642Z,18.91
2022-09-21T12:24:47.887Z,19.00
2022-09-21T12:27:27.865Z,19.01
2022-09-21T12:29:59.609Z,19.04
2022-09-21T12:32:39.811Z,19.09
2022-09-21T12:35:12.783Z,19.20
2022-09-21T12:37:54.527Z,19.24
2022-09-21T12:40:43.340Z,19.25
2022-09-21T12:43:38.367Z,19.29
2022-09-21T12:46:14.047Z,19.32
2022-09-21T12:48:42.343Z,19.45
2022-09-21T12:51:24.726Z,19.50
2022-09-21T12:53:55.792Z,19.53
2022-09-21T12:56:22.621Z,19.55
2022-09-21T12:59:24.568Z,19.66
2022-09-21T13:02:15.530Z,19.79
2022-09-21T13:05:02.107Z,19.86
2022-09-21T13:07:34.580Z,19.92
2022-09-21T13:10:08.546Z,19.91
2022-09-21T13:12:41.330Z,19.84
2022-09-21T13:15:20.109Z,19.86
2022-09-21T13:17:46.976Z,19.88
2022-09-21T13:20:19.971Z,19.77
2022-09-21T13:22:50.494Z,19.72
2022-09-21T13:25:24.712Z,19.69
2022-09-21T13:28:02.099Z,19.68
2022-09-21T13:30:45.173Z,19.71
2022-09-21T13:33:20.799Z,19.67
2022-09-21T13:35:50.413Z,19.69
2022-09-21T13:38:29.376Z,19.54
2022-09-21T13:41:18.786Z,19.64
2022-09-21T13:43:48.413Z,19.71
2022-09-21T13:46:36.897Z,19.69
2022-09-21T13:49:14.151Z,19.68
2022-09-21T13:52:05.141Z,19.70
2022-09-21T13:54:48.714Z,19.82
2022-09-21T13:57:24.419Z,19.94
2022-09-21T14:00:13.008Z,20.04
2022-09-21T14:02:42.927Z,19.81
2022-09-21T14:05:25.422Z,19.65
2022-09-21T14:08:31.759Z,19.47
2022-09-21T14:11:11.552Z,19.37
2022-09-21T14:13:41.423Z,19.35
2022-09-21T14:16:45.098Z,19.45
2022-09-21T14:19:17.497Z,19.67
2022-09-21T14:22:06.311Z,19.87
2022-09-21T14:24:49.959Z,19.93
2022-09-21T14:27:25.242Z,20.00
2022-09-21T14:30:19.938Z,20.16
2022-09-21T14:32:51.051Z,20.37
2022-09-21T14:35:20.918Z,20.62
2022-09-21T14:37:53.071Z,20.73
2022-09-21T14:40:26.162Z,20.63
2022-09-21T14:42:55.156Z,20.49
2022-09-21T14:45:27.956Z,20.46
2022-09-21T14:48:10.697Z,20.46
2022-09-21T14:50:45.507Z,20.43
2022-09-21T14:53:42.355Z,20.67
2022-09-21T14:56:21.198Z,20.86
2022-09-21T14:58:47.891Z,20.89
2022-09-21T15:01:35.989Z,20.87
2022-09-21T15:04:21.588Z,20.76
2022-09-21T15:07:13.296Z,20.56
2022-09-21T15:10:07.827Z,20.48
2022-09-21T15:12:46.691Z,20.39
2022-09-21T15:15:29.120Z,20.34
2022-09-21T15:17:59.719Z,20.32
2022-09-21T15:20:28.700Z,20.96
2022-09-21T15:22:59.666Z,22.81
2022-09-21T15:25:29.367Z,29.38
2022-09-21T15:27:56.130Z,34.24
2022-09-21T15:30:28.623Z,39.13
2022-09-21T15:33:00.754Z,37.65
2022-09-21T15:35:30.431Z,42.01
2022-09-21T15:38:00.907Z,45.90
2022-09-21T15:40:33.560Z,45.98
2022-09-21T15:43:19.641Z,43.33
2022-09-21T15:45:54.759Z,42.38
2022-09-21T15:48:25.925Z,43.34
2022-09-21T15:51:16.922Z,46.88
2022-09-21T15:53:53.344Z,46.91
2022-09-21T15:56:26.579Z,48.91
2022-09-21T15:59:09.029Z,49.98
2022-09-21T16:01:42.738Z,50.52
2022-09-21T16:04:17.222Z,50.92
2022-09-21T16:06:47.315Z,50.73
2022-09-21T16:09:30.087Z,46.35
2022-09-21T16:11:57.507Z,40.02
2022-09-21T16:14:42.603Z,34.73
2022-09-21T16:17:09.232Z,31.11
2022-09-21T16:19:43.008Z,28.81
2022-09-21T16:22:14.200Z,27.12
2022-09-21T16:24:55.579Z,25.74
2022-09-21T16:27:24.634Z,24.75
2022-09-21T16:29:52.140Z,23.87
2022-09-21T16:32:18.800Z,23.08
2022-09-21T16:34:46.266Z,22.41
2022-09-21T16:37:30.627Z,21.95
2022-09-21T16:39:58.991Z,21.53
2022-09-21T16:42:27.970Z,21.06
2022-09-21T16:44:55.164Z,20.73
2022-09-21T16:47:25.239Z,20.51
2022-09-21T16:49:57.787Z,20.23
2022-09-21T16:52:25.443Z,19.89
2022-09-21T16:54:52.099Z,19.57
2022-09-21T16:57:18.899Z,19.27
2022-09-21T16:59:45.857Z,19.01
2022-09-21T17:02:14.325Z,18.91
2022-09-21T17:04:41.558Z,18.78
2022-09-21T17:07:11.939Z,18.59
2022-09-21T17:09:39.183Z,18.38
2022-09-21T17:12:09.128Z,18.12
2022-09-21T17:14:37.063Z,17.93
2022-09-21T17:17:36.454Z,17.67
2022-09-21T17:20:14.548Z,17.44
2022-09-21T17:22:41.362Z,17.21
2022-09-21T17:25:08.521Z,16.98
2022-09-21T17:27:36.391Z,16.84
2022-09-21T17:30:03.488Z,16.65
2022-09-21T17:32:35.247Z,16.47
2022-09-21T17:35:36.387Z,16.26
2022-09-21T17:38:03.135Z,16.08
2022-09-21T17:40:30.204Z,15.94
2022-09-21T17:43:24.608Z,15.80
2022-09-21T17:46:08.447Z,15.60
2022-09-21T17:48:36.688Z,15.46
2022-09-21T17:51:03.702Z,15.33
2022-09-21T17:53:41.759Z,15.21
2022-09-21T17:56:30.038Z,15.07
2022-09-21T17:59:05.535Z,15.00
2022-09-21T18:01:38.685Z,15.02
2022-09-21T18:04:06.743Z,15.07
2022-09-21T18:06:34.251Z,15.16
2022-09-21T18:09:01.764Z,15.26
2022-09-21T18:11:40.482Z,15.35
2022-09-21T18:14:25.064Z,15.42
2022-09-21T18:17:27.034Z,15.51
2022-09-21T18:20:25.970Z,15.57
2022-09-21T18:22:55.464Z,15.65
2022-09-21T18:25:34.888Z,15.68
2022-09-21T18:28:12.861Z,15.73
2022-09-21T18:30:43.033Z,15.75
2022-09-21T18:33:24.174Z,15.74
2022-09-21T18:35:59.213Z,15.77
2022-09-21T18:38:32.046Z,15.76
2022-09-21T18:41:14.955Z,15.78
2022-09-21T18:44:13.120Z,15.77
2022-09-21T18:47:16.992Z,15.77
2022-09-21T18:49:57.775Z,15.77
2022-09-21T18:52:52.087Z,15.76
2022-09-21T18:55:27.486Z,15.74
2022-09-21T18:57:56.110Z,15.74
2022-09-21T19:00:31.744Z,15.71
2022-09-21T19:03:16.553Z,15.70
2022-09-21T19:06:09.806Z,15.66
2022-09-21T19:08:49.972Z,15.63
2022-09-21T19:11:22.987Z,15.62
2022-09-21T19:13:58.450Z,15.61
2022-09-21T19:16:48.264Z,15.59
2022-09-21T19:19:14.928Z,15.56
2022-09-21T19:21:45.782Z,15.54
2022-09-21T19:24:18.614Z,15.53
2022-09-21T19:26:46.296Z,15.47
2022-09-21T19:29:45.619Z,15.45
2022-09-21T19:32:25.243Z,15.42
2022-09-21T19:34:52.751Z,15.38
2022-09-21T19:37:19.578Z,15.34
2022-09-21T19:39:46.605Z,15.32
2022-09-21T19:42:37.377Z,15.29
2022-09-21T19:45:10.588Z,15.26
2022-09-21T19:47:50.175Z,15.22
2022-09-21T19:50:26.367Z,15.21
2022-09-21T19:53:13.410Z,15.20
2022-09-21T19:56:00.364Z,15.16
2022-09-21T19:58:45.721Z,15.12
2022-09-21T20:01:19.358Z,15.10
2022-09-21T20:03:49.365Z,15.09
2022-09-21T20:06:26.007Z,15.07
2022-09-21T20:09:07.810Z,15.05
2022-09-21T20:11:47.071Z,15.03
2022-09-21T20:14:19.771Z,15.00
2022-09-21T20:16:58.110Z,14.94
2022-09-21T20:19:38.111Z,14.92
2022-09-21T20:22:43.015Z,14.87
2022-09-21T20:25:13.178Z,14.85
2022-09-21T20:27:45.138Z,14.83
2022-09-21T20:30:14.046Z,14.79
2022-09-21T20:32:42.660Z,14.75
2022-09-21T20:35:19.128Z,14.73
2022-09-21T20:37:46.017Z,14.72
2022-09-21T20:40:13.638Z,14.71
2022-09-21T20:42:41.068Z,14.70
2022-09-21T20:45:09.682Z,14.64
2022-09-21T20:47:36.683Z,14.62
2022-09-21T20:50:04.184Z,14.60
2022-09-21T20:52:31.008Z,14.60
2022-09-21T20:54:57.687Z,14.59
2022-09-21T20:57:24.571Z,14.58
2022-09-21T20:59:51.215Z,14.56
2022-09-21T21:02:18.144Z,14.54
2022-09-21T21:04:44.856Z,14.53
2022-09-21T21:07:11.822Z,14.48
2022-09-21T21:09:38.475Z,14.44
2022-09-21T21:12:05.520Z,14.41
2022-09-21T21:14:32.153Z,14.38
2022-09-21T21:16:58.892Z,14.37
2022-09-21T21:19:26.125Z,14.35
2022-09-21T21:21:52.850Z,14.32
2022-09-21T21:24:38.083Z,14.29
2022-09-21T21:27:04.896Z,14.26
2022-09-21T21:29:31.994Z,14.23
2022-09-21T21:32:01.559Z,14.20
2022-09-21T21:34:28.909Z,14.18
2022-09-21T21:36:55.996Z,14.14
2022-09-21T21:39:22.734Z,14.11
2022-09-21T21:41:49.418Z,14.09
2022-09-21T21:44:16.333Z,14.06
2022-09-21T21:46:43.409Z,14.01
2022-09-21T21:49:10.211Z,13.99
2022-09-21T21:51:36.913Z,13.96
2022-09-21T21:54:04.142Z,13.92
2022-09-21T21:56:30.803Z,13.88
2022-09-21T21:58:57.671Z,13.85
2022-09-21T22:01:26.960Z,13.81
2022-09-21T22:03:57.715Z,13.78
2022-09-21T22:06:25.387Z,13.75
2022-09-21T22:08:52.648Z,13.73
2022-09-21T22:11:20.029Z,13.70
2022-09-21T22:13:46.792Z,13.69
2022-09-21T22:16:19.461Z,13.65
2022-09-21T22:18:46.758Z,13.63
2022-09-21T22:21:21.678Z,13.58
2022-09-21T22:23:58.873Z,13.53
2022-09-21T22:26:27.164Z,13.49
2022-09-21T22:28:57.040Z,13.45
2022-09-21T22:31:26.715Z,13.43
2022-09-21T22:33:54.578Z,13.44
2022-09-21T22:36:23.609Z,13.41
2022-09-21T22:38:50.483Z,13.37
2022-09-21T22:41:19.268Z,13.33
2022-09-21T22:43:47.008Z,13.31
2022-09-21T22:46:14.155Z,13.30
2022-09-21T22:48:40.828Z,13.26
2022-09-21T22:51:07.685Z,13.24
2022-09-21T22:53:34.791Z,13.19
2022-09-21T22:56:09.825Z,13.16
2022-09-21T22:58:39.490Z,13.15
2022-09-21T23:01:18.374Z,13.13
2022-09-21T23:03:49.257Z,13.07
2022-09-21T23:06:19.059Z,13.05
2022-09-21T23:08:50.914Z,13.01
2022-09-21T23:11:29.764Z,12.99
2022-09-21T23:13:57.492Z,12.97
2022-09-21T23:16:25.531Z,12.95
2022-09-21T23:18:52.596Z,12.90
2022-09-21T23:21:22.110Z,12.87
2022-09-21T23:23:49.283Z,12.87
2022-09-21T23:26:21.505Z,12.87
2022-09-21T23:28:59.557Z,12.86
2022-09-21T23:31:27.147Z,12.82
2022-09-21T23:33:55.492Z,12.78
2022-09-21T23:36:24.948Z,12.76
2022-09-21T23:38:52.082Z,12.73
2022-09-21T23:41:26.264Z,12.71
2022-09-21T23:43:53.579Z,12.67
2022-09-21T23:46:22.732Z,12.67
2022-09-21T23:48:49.730Z,12.64
2022-09-21T23:51:17.514Z,12.62
2022-09-21T23:53:45.142Z,12.58
2022-09-21T23:56:15.742Z,12.55
2022-09-21T23:58:42.318Z,12.58
